Time;durP1;ratioP1;P1;durP2;ratioP2;P2;SDS_P1;SDS_P2;PMS_P1;PMS_P2;Temp;Humidity;BMP_temperature;BMP_pressure;BME280_temperature;BME280_humidity;BME280_pressure;Samples;Min_cycle;Max_cycle;Signal;HPM_P1;HPM_P2
2021/06/23 00:01:38;;;;;;;8.90;6.95;;;18.00;89.90;;;;;;5033405;28;20036;-58
2021/06/23 00:04:22;;;;;;;8.70;7.18;;;17.90;90.20;;;;;;5033800;28;20040;-59
2021/06/23 00:07:06;;;;;;;10.60;7.70;;;17.90;90.10;;;;;;5031697;28;20036;-59
2021/06/23 00:09:50;;;;;;;9.82;7.30;;;18.10;89.60;;;;;;5033519;28;20079;-59
2021/06/23 00:12:34;;;;;;;8.48;7.60;;;18.00;89.80;;;;;;5030585;28;20040;-59
2021/06/23 00:15:20;;;;;;;26.48;22.55;;;17.90;90.00;;;;;;5033015;28;20041;-59
2021/06/23 00:18:04;;;;;;;13.90;12.50;;;17.90;90.00;;;;;;5029278;28;20099;-59
2021/06/23 00:20:48;;;;;;;19.75;17.33;;;18.00;89.90;;;;;;5031533;28;20079;-55
2021/06/23 00:23:33;;;;;;;11.05;8.88;;;18.00;90.00;;;;;;5018328;28;20036;-54
2021/06/23 00:26:17;;;;;;;8.63;7.72;;;18.10;89.20;;;;;;5018066;28;20056;-57
2021/06/23 00:29:03;;;;;;;8.82;7.30;;;18.10;89.40;;;;;;5032145;28;20143;-55
2021/06/23 00:31:47;;;;;;;12.13;8.38;;;18.20;89.40;;;;;;5032914;28;20091;-58
2021/06/23 00:34:32;;;;;;;10.13;7.60;;;18.20;89.20;;;;;;5032423;28;20052;-58
2021/06/23 00:37:16;;;;;;;10.20;7.53;;;18.10;89.60;;;;;;5032215;28;20040;-57
2021/06/23 00:40:00;;;;;;;9.85;7.57;;;18.10;89.50;;;;;;5031690;28;20113;-59
2021/06/23 00:42:45;;;;;;;;;;;18.10;88.90;;;;;;5033271;28;20196;-60
2021/06/23 00:45:30;;;;;;;13.18;8.57;;;18.00;90.00;;;;;;5032631;28;19912;-59
2021/06/23 00:48:27;;;;;;;10.75;7.47;;;18.00;90.10;;;;;;5032536;28;20037;-59
2021/06/23 00:51:13;;;;;;;9.07;8.18;;;18.00;90.00;;;;;;5032638;28;20562;-59
2021/06/23 00:53:57;;;;;;;13.90;9.27;;;18.00;90.20;;;;;;5033025;28;20039;-57
2021/06/23 00:56:43;;;;;;;15.38;11.15;;;18.00;90.30;;;;;;5032149;28;20524;-59
2021/06/23 00:59:27;;;;;;;18.38;11.57;;;17.90;90.20;;;;;;5032658;28;20056;-57
2021/06/23 01:02:12;;;;;;;19.58;13.07;;;18.00;90.30;;;;;;5037426;28;20533;-59
2021/06/23 01:04:58;;;;;;;11.30;10.10;;;18.10;90.20;;;;;;5052967;28;20163;-58
2021/06/23 01:07:43;;;;;;;11.75;9.27;;;18.10;90.10;;;;;;5052336;28;20032;-59
2021/06/23 01:10:34;;;;;;;14.73;8.75;;;18.10;89.70;;;;;;5052322;28;20040;-56
2021/06/23 01:13:27;;;;;;;12.63;7.85;;;18.10;88.80;;;;;;5033307;28;20112;-59
2021/06/23 01:16:13;;;;;;;8.85;7.53;;;18.10;88.70;;;;;;5022402;28;20401;-59
2021/06/23 01:18:59;;;;;;;11.23;7.75;;;18.10;88.30;;;;;;5032802;28;20108;-58
2021/06/23 01:21:43;;;;;;;12.77;7.93;;;18.00;88.50;;;;;;5032109;28;20113;-58
2021/06/23 01:24:28;;;;;;;11.05;8.02;;;17.90;89.00;;;;;;5032408;28;20056;-58
2021/06/23 01:27:12;;;;;;;13.23;8.25;;;18.00;89.10;;;;;;5026397;28;20456;-57
2021/06/23 01:29:56;;;;;;;10.85;7.82;;;18.10;89.00;;;;;;5032671;28;20096;-58
2021/06/23 01:32:41;;;;;;;9.52;8.10;;;18.10;88.80;;;;;;5032304;28;20092;-58
2021/06/23 01:35:29;;;;;;;12.20;7.75;;;18.00;89.40;;;;;;5032137;28;20032;-59
2021/06/23 01:38:13;;;;;;;9.18;7.95;;;18.00;89.50;;;;;;5031981;28;20117;-57
2021/06/23 01:40:58;;;;;;;10.15;7.32;;;17.80;90.10;;;;;;5032099;28;20036;-57
2021/06/23 01:43:44;;;;;;;10.77;7.63;;;17.90;90.00;;;;;;5032381;28;20091;-56
2021/06/23 01:46:28;;;;;;;10.77;7.90;;;18.00;89.80;;;;;;5034860;28;20032;-57
2021/06/23 01:49:17;;;;;;;9.47;8.07;;;18.10;89.60;;;;;;5038544;28;20041;-58
2021/06/23 01:52:01;;;;;;;10.02;7.60;;;18.10;89.80;;;;;;5036116;28;20279;-58
2021/06/23 01:54:46;;;;;;;;;;;18.10;89.40;;;;;;5036358;28;20039;-59
2021/06/23 01:57:33;;;;;;;11.32;8.05;;;18.10;89.70;;;;;;5035770;28;20012;-58
2021/06/23 02:00:17;;;;;;;9.52;7.68;;;17.90;89.90;;;;;;5035995;28;20488;-57
2021/06/23 02:03:14;;;;;;;9.52;7.78;;;18.00;90.00;;;;;;5035945;28;20045;-55
2021/06/23 02:06:06;;;;;;;13.82;9.27;;;17.90;90.10;;;;;;5035804;28;20032;-59
2021/06/23 02:08:59;;;;;;;14.57;9.68;;;17.80;90.40;;;;;;5055577;28;20035;-56
2021/06/23 02:11:47;;;;;;;13.13;8.45;;;17.60;90.60;;;;;;5056221;28;20059;-58
2021/06/23 02:14:43;;;;;;;15.45;10.18;;;17.60;90.60;;;;;;5055986;28;20082;-59
2021/06/23 02:17:29;;;;;;;11.90;9.30;;;17.40;91.10;;;;;;5054516;28;20031;-59
2021/06/23 02:20:17;;;;;;;12.52;9.70;;;17.40;91.20;;;;;;5054918;28;20173;-58
2021/06/23 02:23:07;;;;;;;12.75;10.40;;;17.50;91.00;;;;;;5055300;28;20094;-58
2021/06/23 02:25:52;;;;;;;13.40;9.60;;;17.30;91.10;;;;;;5032945;28;20040;-56
2021/06/23 02:28:36;;;;;;;;;;;17.40;91.00;;;;;;5020152;28;20097;-59
2021/06/23 02:31:20;;;;;;;13.55;9.55;;;17.50;90.90;;;;;;5033839;28;20356;-58
2021/06/23 02:34:14;;;;;;;12.75;9.30;;;17.50;91.10;;;;;;5020154;28;20051;-56
2021/06/23 02:37:00;;;;;;;13.52;9.98;;;17.20;91.40;;;;;;5035623;28;20515;-58
2021/06/23 02:39:45;;;;;;;14.02;9.60;;;17.30;91.40;;;;;;5035465;28;20088;-58
2021/06/23 02:42:29;;;;;;;;;;;17.40;91.20;;;;;;5044023;28;20033;-56
2021/06/23 02:45:14;;;;;;;12.57;9.70;;;17.40;90.90;;;;;;5034411;28;20363;-57
2021/06/23 02:47:58;;;;;;;12.95;10.02;;;17.40;90.80;;;;;;5035883;28;20448;-56
2021/06/23 02:51:02;;;;;;;;;;;17.40;90.80;;;;;;5054608;28;20118;-58
2021/06/23 02:53:48;;;;;;;15.93;10.15;;;17.40;90.90;;;;;;5053275;28;19955;-58
2021/06/23 02:56:33;;;;;;;15.43;10.40;;;17.30;91.20;;;;;;5053286;28;20495;-58
2021/06/23 02:59:19;;;;;;;15.13;9.98;;;17.30;91.30;;;;;;5054397;28;20056;-58
2021/06/23 03:02:04;;;;;;;16.67;10.88;;;17.30;91.20;;;;;;5054125;28;20031;-57
2021/06/23 03:04:49;;;;;;;12.13;10.40;;;17.30;91.20;;;;;;5039193;28;20095;-58
2021/06/23 03:07:34;;;;;;;14.63;10.20;;;17.20;91.50;;;;;;5053857;28;20114;-58
2021/06/23 03:10:18;;;;;;;14.68;10.43;;;17.10;91.40;;;;;;5038985;28;20036;-56
2021/06/23 03:13:02;;;;;;;12.43;10.60;;;17.00;91.40;;;;;;5053921;28;20523;-54
2021/06/23 03:15:47;;;;;;;13.75;10.25;;;17.10;91.30;;;;;;5038697;28;20117;-58
2021/06/23 03:18:34;;;;;;;17.38;10.55;;;17.10;91.10;;;;;;5033983;28;20091;-58
2021/06/23 03:21:18;;;;;;;17.35;10.50;;;17.00;91.30;;;;;;5033818;28;20079;-57
2021/06/23 03:24:03;;;;;;;16.25;9.40;;;17.10;91.10;;;;;;5033351;28;20040;-58
2021/06/23 03:26:47;;;;;;;15.82;10.05;;;17.00;91.00;;;;;;5033633;28;20032;-57
2021/06/23 03:29:34;;;;;;;14.65;10.07;;;17.00;91.10;;;;;;5033322;28;20036;-57
2021/06/23 03:32:18;;;;;;;14.05;8.85;;;17.00;91.10;;;;;;5033849;28;20565;-59
2021/06/23 03:35:02;;;;;;;11.23;8.18;;;17.00;91.30;;;;;;5033854;28;20080;-59
2021/06/23 03:37:48;;;;;;;13.80;8.68;;;17.10;90.70;;;;;;5033524;28;20117;-57
2021/06/23 03:40:32;;;;;;;17.38;9.30;;;16.90;90.60;;;;;;5033985;28;20032;-58
2021/06/23 03:43:19;;;;;;;11.65;8.20;;;16.90;90.70;;;;;;5033539;28;20503;-57
2021/06/23 03:46:03;;;;;;;14.73;8.23;;;16.80;90.50;;;;;;5033214;28;20087;-57
2021/06/23 03:48:48;;;;;;;13.07;7.93;;;16.70;90.80;;;;;;5033829;28;20095;-59
2021/06/23 03:51:32;;;;;;;12.10;7.97;;;16.60;90.90;;;;;;5033626;28;20087;-59
2021/06/23 03:54:16;;;;;;;13.18;8.02;;;16.70;90.70;;;;;;5033468;28;20040;-59
2021/06/23 03:57:01;;;;;;;13.30;7.53;;;16.70;90.60;;;;;;5033080;28;20476;-61
2021/06/23 03:59:45;;;;;;;11.75;7.20;;;16.70;90.50;;;;;;5034959;28;20085;-60
2021/06/23 04:02:29;;;;;;;13.27;8.38;;;16.60;90.30;;;;;;4992716;28;20079;-59
2021/06/23 04:05:14;;;;;;;11.10;7.95;;;16.60;90.30;;;;;;5032267;28;20032;-58
2021/06/23 04:07:58;;;;;;;11.10;7.60;;;16.70;90.40;;;;;;5032324;28;20048;-56
2021/06/23 04:10:42;;;;;;;13.45;7.20;;;16.60;90.20;;;;;;5032992;28;20089;-54
2021/06/23 04:13:26;;;;;;;11.32;7.10;;;16.50;90.10;;;;;;5033296;28;20095;-55
2021/06/23 04:16:12;;;;;;;11.18;7.22;;;16.60;90.00;;;;;;5032365;28;20036;-55
2021/06/23 04:18:56;;;;;;;13.82;7.00;;;16.60;89.50;;;;;;5033216;28;20042;-59
2021/06/23 04:21:40;;;;;;;13.57;6.38;;;16.60;88.90;;;;;;5017823;28;20601;-57
2021/06/23 04:24:24;;;;;;;9.88;6.60;;;16.60;89.30;;;;;;5032919;28;20500;-58
2021/06/23 04:27:09;;;;;;;15.23;6.40;;;16.70;89.60;;;;;;5017220;28;20063;-57
2021/06/23 04:29:53;;;;;;;12.32;6.68;;;16.80;88.90;;;;;;5032689;28;20084;-55
2021/06/23 04:32:37;;;;;;;14.55;7.40;;;16.70;89.00;;;;;;5033345;28;20040;-57
2021/06/23 04:35:21;;;;;;;16.45;6.47;;;16.50;89.40;;;;;;5032512;28;20084;-58
2021/06/23 04:38:05;;;;;;;10.10;6.85;;;16.60;89.80;;;;;;5032341;28;20067;-56
2021/06/23 04:40:49;;;;;;;17.95;7.90;;;16.60;89.70;;;;;;5032849;28;20524;-57
2021/06/23 04:43:33;;;;;;;10.00;6.93;;;16.50;90.10;;;;;;5032383;28;20111;-59
2021/06/23 04:46:17;;;;;;;14.63;7.07;;;16.40;90.20;;;;;;5031662;28;20280;-59
2021/06/23 04:49:02;;;;;;;15.07;8.05;;;16.40;90.20;;;;;;5017445;28;20515;-58
2021/06/23 04:51:46;;;;;;;12.18;7.57;;;16.60;90.20;;;;;;5032589;28;20060;-57
2021/06/23 04:54:31;;;;;;;14.88;7.07;;;16.70;90.10;;;;;;5032440;28;20574;-58
2021/06/23 04:57:16;;;;;;;10.88;8.20;;;16.80;90.00;;;;;;5002742;28;20056;-59
2021/06/23 05:00:00;;;;;;;16.52;8.52;;;16.60;90.10;;;;;;5017526;28;20044;-55
2021/06/23 05:02:44;;;;;;;14.85;10.18;;;16.40;90.50;;;;;;5018934;28;20104;-56
2021/06/23 05:05:28;;;;;;;14.27;8.37;;;16.30;90.80;;;;;;5031797;28;20514;-60
2021/06/23 05:08:12;;;;;;;14.40;8.30;;;16.40;90.80;;;;;;5017582;28;20279;-59
2021/06/23 05:10:56;;;;;;;11.73;7.75;;;16.40;90.70;;;;;;5029412;28;20091;-59
2021/06/23 05:13:40;;;;;;;19.02;8.77;;;16.50;90.60;;;;;;5032059;28;20053;-58
2021/06/23 05:16:26;;;;;;;18.63;8.70;;;16.30;90.80;;;;;;5031565;28;20517;-57
2021/06/23 05:19:10;;;;;;;12.02;7.70;;;16.30;91.00;;;;;;5031820;28;20314;-59
2021/06/23 05:21:57;;;;;;;15.10;8.15;;;16.40;90.80;;;;;;5040830;28;20574;-58
2021/06/23 05:24:41;;;;;;;12.07;8.18;;;16.40;90.40;;;;;;5038153;28;20060;-58
2021/06/23 05:27:26;;;;;;;11.70;7.75;;;16.40;90.90;;;;;;5037748;28;20036;-57
2021/06/23 05:30:10;;;;;;;14.90;8.45;;;16.30;90.80;;;;;;5038836;28;20040;-58
2021/06/23 05:32:54;;;;;;;16.95;9.25;;;16.20;90.90;;;;;;5039039;28;20037;-59
2021/06/23 05:35:39;;;;;;;17.73;8.00;;;16.20;90.90;;;;;;5038612;28;20068;-59
2021/06/23 05:38:23;;;;;;;16.88;8.52;;;16.20;90.80;;;;;;5023482;28;20255;-57
2021/06/23 05:41:07;;;;;;;17.92;9.50;;;16.20;90.90;;;;;;5039743;28;20060;-57
2021/06/23 05:43:51;;;;;;;17.30;8.93;;;16.30;90.60;;;;;;5039353;28;20511;-57
2021/06/23 05:46:35;;;;;;;14.77;8.00;;;16.40;90.60;;;;;;5038084;28;20122;-58
2021/06/23 05:49:19;;;;;;;14.30;8.35;;;16.40;90.60;;;;;;5023678;28;20355;-59
2021/06/23 05:52:04;;;;;;;17.40;9.18;;;16.50;90.70;;;;;;5039564;28;20500;-58
2021/06/23 05:54:48;;;;;;;13.98;8.80;;;16.50;90.60;;;;;;5039125;28;20040;-59
2021/06/23 05:57:32;;;;;;;18.23;11.02;;;16.70;90.30;;;;;;5022606;28;20032;-59
2021/06/23 06:00:18;;;;;;;13.05;9.88;;;16.50;90.30;;;;;;5023658;28;20032;-57
2021/06/23 06:03:05;;;;;;;16.27;10.18;;;16.50;90.40;;;;;;5038482;28;20109;-59
2021/06/23 06:05:50;;;;;;;18.77;10.23;;;16.40;90.60;;;;;;5038234;28;20037;-58
2021/06/23 06:08:34;;;;;;;22.58;10.45;;;16.60;90.50;;;;;;5058054;28;20027;-56
2021/06/23 06:11:18;;;;;;;15.02;10.02;;;16.60;90.40;;;;;;5059060;28;20086;-59
2021/06/23 06:14:02;;;;;;;16.15;9.73;;;16.50;90.30;;;;;;5059163;28;20032;-60
2021/06/23 06:16:47;;;;;;;11.23;8.93;;;16.40;90.40;;;;;;5058371;28;20031;-57
2021/06/23 06:19:31;;;;;;;19.60;8.93;;;16.50;90.10;;;;;;5058641;28;20453;-56
2021/06/23 06:22:15;;;;;;;15.05;8.90;;;16.60;90.40;;;;;;5053277;28;20043;-59
2021/06/23 06:25:00;;;;;;;17.83;9.52;;;16.60;90.00;;;;;;5037997;28;20148;-59
2021/06/23 06:27:44;;;;;;;21.23;10.10;;;16.50;90.10;;;;;;5034332;28;20075;-59
2021/06/23 06:30:28;;;;;;;19.35;9.38;;;16.50;90.30;;;;;;5035996;28;20032;-58
2021/06/23 06:33:13;;;;;;;19.98;8.15;;;16.50;90.30;;;;;;5031795;28;20393;-58
2021/06/23 06:35:57;;;;;;;18.00;9.32;;;16.50;90.30;;;;;;5034499;28;20094;-57
2021/06/23 06:38:42;;;;;;;18.48;8.70;;;16.70;90.10;;;;;;5033911;28;20080;-58
2021/06/23 06:41:26;;;;;;;16.65;8.35;;;16.70;90.00;;;;;;5036532;28;20083;-58
2021/06/23 06:44:10;;;;;;;17.65;7.68;;;16.70;89.70;;;;;;5035442;28;20079;-58
2021/06/23 06:46:54;;;;;;;17.23;7.35;;;16.50;90.00;;;;;;5033960;28;20436;-59
2021/06/23 06:49:38;;;;;;;15.35;7.22;;;16.40;90.40;;;;;;5032727;28;20036;-58
2021/06/23 06:52:22;;;;;;;13.13;7.30;;;16.60;90.50;;;;;;5034724;28;20032;-58
2021/06/23 06:55:08;;;;;;;16.33;7.32;;;16.80;90.20;;;;;;5029476;28;20094;-57
2021/06/23 06:57:55;;;;;;;14.50;6.82;;;16.70;90.00;;;;;;5032872;28;20432;-57
2021/06/23 07:00:40;;;;;;;15.30;6.57;;;16.70;90.10;;;;;;5034585;28;20032;-57
2021/06/23 07:03:24;;;;;;;11.15;5.90;;;16.60;90.10;;;;;;5034152;28;20040;-58
2021/06/23 07:06:08;;;;;;;14.25;6.05;;;16.50;90.70;;;;;;5033115;28;20504;-58
2021/06/23 07:08:52;;;;;;;14.52;6.93;;;16.50;90.60;;;;;;5032203;28;20060;-57
2021/06/23 07:11:36;;;;;;;11.75;6.45;;;16.40;91.00;;;;;;5034349;28;20032;-57
2021/06/23 07:14:21;;;;;;;19.48;6.97;;;16.40;91.10;;;;;;5033401;28;20045;-54
2021/06/23 07:17:05;;;;;;;12.73;6.57;;;16.40;91.40;;;;;;5032013;28;20041;-58
2021/06/23 07:19:50;;;;;;;18.23;7.72;;;16.60;91.30;;;;;;5033784;28;20036;-56
2021/06/23 07:22:34;;;;;;;16.02;7.07;;;16.50;91.50;;;;;;5032630;28;20399;-57
2021/06/23 07:25:18;;;;;;;15.82;7.68;;;16.40;92.20;;;;;;5032042;28;20491;-55
2021/06/23 07:28:02;;;;;;;16.02;8.73;;;16.40;91.60;;;;;;5032099;28;20072;-58
2021/06/23 07:30:47;;;;;;;20.42;10.88;;;16.50;92.10;;;;;;5028974;28;20084;-60
2021/06/23 07:33:31;;;;;;;17.88;8.07;;;16.50;92.30;;;;;;5028315;28;20563;-62
2021/06/23 07:36:33;;;;;;;15.10;7.20;;;16.50;92.50;;;;;;5032000;28;20041;-63
2021/06/23 07:39:19;;;;;;;14.82;7.50;;;16.40;92.80;;;;;;5034676;28;20079;-61
2021/06/23 07:42:05;;;;;;;18.27;8.85;;;16.30;93.20;;;;;;5021307;28;20106;-60
2021/06/23 07:44:56;;;;;;;15.20;7.93;;;16.40;93.40;;;;;;5033085;28;20052;-61
2021/06/23 07:47:41;;;;;;;16.77;8.07;;;16.40;93.40;;;;;;5031435;28;20059;-60
2021/06/23 07:50:26;;;;;;;15.13;7.97;;;16.50;93.30;;;;;;5028943;28;20063;-60
2021/06/23 07:53:27;;;;;;;15.13;8.45;;;16.40;93.30;;;;;;5034526;28;20067;-60
2021/06/23 07:56:23;;;;;;;19.40;8.80;;;16.50;93.40;;;;;;5034366;28;20068;-58
2021/06/23 08:02:52;;;;;;;16.02;9.23;;;16.10;93.60;;;;;;5021986;28;20048;-59
2021/06/23 08:11:21;;;;;;;16.88;9.02;;;16.10;94.60;;;;;;5034452;28;20124;-62
2021/06/23 08:14:06;;;;;;;14.93;9.07;;;16.00;94.60;;;;;;5034274;28;20040;-63
2021/06/23 08:16:50;;;;;;;15.38;8.90;;;16.20;94.30;;;;;;5033238;28;20117;-62
2021/06/23 08:19:34;;;;;;;16.17;9.18;;;16.40;94.30;;;;;;5034423;28;20037;-61
2021/06/23 08:22:19;;;;;;;17.90;10.48;;;16.40;93.60;;;;;;5033538;28;20511;-61
2021/06/23 08:25:04;;;;;;;18.67;10.68;;;16.50;93.80;;;;;;5034096;28;20121;-62
2021/06/23 08:27:49;;;;;;;14.60;9.38;;;16.60;93.90;;;;;;5021077;28;20044;-61
2021/06/23 08:30:34;;;;;;;16.27;10.88;;;16.70;93.70;;;;;;5034016;28;20032;-60
2021/06/23 08:33:19;;;;;;;13.82;9.15;;;16.80;93.30;;;;;;5033358;28;20071;-60
2021/06/23 08:36:04;;;;;;;13.85;9.20;;;16.70;93.50;;;;;;5034993;28;20582;-61
2021/06/23 08:38:50;;;;;;;18.10;10.32;;;16.80;93.50;;;;;;5027264;28;20048;-60
2021/06/23 08:41:37;;;;;;;17.27;10.43;;;16.80;93.80;;;;;;5030675;28;20074;-58
2021/06/23 08:44:22;;;;;;;18.60;11.18;;;16.70;94.00;;;;;;5033412;28;20051;-59
2021/06/23 08:47:06;;;;;;;14.73;9.88;;;16.70;94.00;;;;;;5030711;28;20443;-58
2021/06/23 08:49:51;;;;;;;13.77;10.60;;;16.70;93.40;;;;;;5028627;28;20040;-58
2021/06/23 08:52:35;;;;;;;16.08;10.20;;;16.50;93.80;;;;;;5032304;28;20447;-56
2021/06/23 08:55:20;;;;;;;18.83;9.75;;;16.60;93.70;;;;;;5032412;28;20123;-57
2021/06/23 08:58:05;;;;;;;15.88;10.02;;;16.60;93.50;;;;;;5032194;28;20038;-58
2021/06/23 09:00:49;;;;;;;16.23;9.63;;;16.60;93.60;;;;;;5034277;28;20064;-56
2021/06/23 09:04:09;;;;;;;20.10;11.15;;;16.50;94.10;;;;;;5031489;28;20075;-59
2021/06/23 09:06:58;;;;;;;17.70;10.35;;;16.70;93.90;;;;;;5031161;28;20444;-59
2021/06/23 09:09:43;;;;;;;14.48;9.82;;;16.70;94.00;;;;;;5029568;28;20049;-56
2021/06/23 09:12:27;;;;;;;21.15;11.02;;;16.70;93.90;;;;;;5030761;28;20499;-54
2021/06/23 09:15:32;;;;;;;17.95;10.75;;;16.70;94.20;;;;;;5032229;28;20095;-58
2021/06/23 09:18:17;;;;;;;17.67;11.73;;;16.60;94.60;;;;;;5033080;28;20024;-58
2021/06/23 09:21:13;;;;;;;19.35;11.57;;;16.60;94.90;;;;;;5034927;28;20033;-60
2021/06/23 09:23:58;;;;;;;16.02;11.25;;;16.60;94.30;;;;;;5033414;28;20048;-59
2021/06/23 09:26:43;;;;;;;19.38;11.23;;;16.60;94.10;;;;;;5029485;28;20152;-60
2021/06/23 09:29:27;;;;;;;18.60;9.60;;;16.60;94.20;;;;;;5034067;28;20048;-56
2021/06/23 09:32:11;;;;;;;14.60;9.85;;;16.70;94.20;;;;;;5033234;28;20076;-57
2021/06/23 09:34:55;;;;;;;18.52;10.23;;;16.90;93.80;;;;;;5033218;28;20539;-57
2021/06/23 09:37:40;;;;;;;16.20;9.75;;;16.90;93.50;;;;;;5026555;28;20404;-57
2021/06/23 09:40:25;;;;;;;19.33;10.45;;;17.00;93.10;;;;;;5033225;28;20064;-57
2021/06/23 09:43:10;;;;;;;17.75;9.77;;;16.90;93.50;;;;;;5032995;28;20037;-57
2021/06/23 09:45:54;;;;;;;18.63;10.65;;;17.00;93.30;;;;;;5031092;28;20116;-57
2021/06/23 09:48:38;;;;;;;18.13;10.55;;;17.10;93.30;;;;;;5031557;28;20033;-57
2021/06/23 09:51:24;;;;;;;19.55;10.80;;;17.20;93.30;;;;;;5030459;28;20028;-58
2021/06/23 09:54:10;;;;;;;16.77;10.75;;;17.30;93.20;;;;;;5031962;28;20060;-59
2021/06/23 09:57:08;;;;;;;18.80;11.38;;;17.10;93.40;;;;;;5027613;28;20559;-57
2021/06/23 10:00:07;;;;;;;18.92;11.43;;;17.10;93.30;;;;;;5026648;28;20048;-56
2021/06/23 10:03:05;;;;;;;16.40;10.73;;;17.00;93.60;;;;;;5030077;28;20697;-57
2021/06/23 10:05:49;;;;;;;20.52;11.68;;;17.10;93.60;;;;;;5030544;28;20104;-58
2021/06/23 10:08:33;;;;;;;19.50;10.50;;;17.20;93.10;;;;;;5034163;28;20044;-59
2021/06/23 10:11:28;;;;;;;18.73;11.10;;;17.30;92.90;;;;;;5035582;28;20036;-58
2021/06/23 10:14:12;;;;;;;17.15;10.90;;;17.30;93.10;;;;;;5033579;28;20076;-60
2021/06/23 10:17:00;;;;;;;15.02;10.77;;;17.30;93.00;;;;;;5033879;28;20112;-58
2021/06/23 10:19:45;;;;;;;22.08;11.43;;;17.50;92.70;;;;;;5033438;28;20088;-59
2021/06/23 10:22:30;;;;;;;14.20;10.32;;;17.60;92.60;;;;;;5036123;28;20059;-58
2021/06/23 10:25:17;;;;;;;19.70;11.77;;;17.70;92.20;;;;;;5034791;28;20065;-56
2021/06/23 10:28:02;;;;;;;16.25;10.65;;;17.80;92.40;;;;;;5034918;28;20044;-58
2021/06/23 10:30:47;;;;;;;18.15;11.23;;;17.90;92.40;;;;;;5034517;28;20047;-55
2021/06/23 10:33:38;;;;;;;23.92;12.35;;;18.10;92.10;;;;;;5034424;28;20719;-59
2021/06/23 10:36:24;;;;;;;21.63;11.50;;;18.00;92.30;;;;;;5025550;28;20559;-55
2021/06/23 10:39:09;;;;;;;18.85;11.75;;;18.10;92.30;;;;;;5021705;28;20157;-58
2021/06/23 10:42:01;;;;;;;16.75;11.27;;;18.10;92.70;;;;;;5033588;28;20041;-58
2021/06/23 10:44:54;;;;;;;22.20;11.88;;;18.10;92.30;;;;;;5035456;28;20072;-58
2021/06/23 10:47:42;;;;;;;19.67;10.98;;;17.90;92.30;;;;;;5021651;28;20029;-59
2021/06/23 10:50:34;;;;;;;17.15;10.52;;;17.80;92.10;;;;;;5007871;28;20143;-54
2021/06/23 10:53:34;;;;;;;16.52;11.20;;;17.60;92.40;;;;;;5032756;28;20411;-57
2021/06/23 10:56:44;;;;;;;17.10;10.65;;;17.50;92.70;;;;;;5035607;28;20044;-54
2021/06/23 10:59:36;;;;;;;17.08;10.55;;;17.70;92.70;;;;;;5033845;28;20552;-58
2021/06/23 11:02:28;;;;;;;18.60;10.75;;;17.80;92.50;;;;;;5035460;28;20562;-58
2021/06/23 11:05:19;;;;;;;20.33;10.82;;;17.90;92.20;;;;;;5025164;28;20032;-58
2021/06/23 11:08:27;;;;;;;15.32;11.20;;;18.00;92.20;;;;;;5034951;28;20554;-58
2021/06/23 11:11:11;;;;;;;20.50;11.93;;;18.20;92.20;;;;;;5006249;28;20091;-58
2021/06/23 11:14:15;;;;;;;18.42;11.13;;;18.10;92.10;;;;;;5035267;28;20049;-56
2021/06/23 11:17:37;;;;;;;14.90;11.13;;;18.20;92.40;;;;;;5009455;28;20103;-56
2021/06/23 11:20:22;;;;;;;16.92;11.48;;;18.40;91.90;;;;;;5031821;28;20099;-58
2021/06/23 11:23:06;;;;;;;17.38;12.10;;;18.50;91.40;;;;;;5029340;28;20067;-58
2021/06/23 11:25:50;;;;;;;;;;;18.80;91.40;;;;;;5034215;28;20507;-59
2021/06/23 11:28:36;;;;;;;15.07;11.43;;;19.00;91.30;;;;;;5033944;28;19924;-58
2021/06/23 11:31:21;;;;;;;16.02;11.02;;;19.30;90.50;;;;;;5033319;28;20083;-60
2021/06/23 11:34:05;;;;;;;16.73;11.32;;;19.20;90.40;;;;;;5006739;28;20049;-57
2021/06/23 11:36:49;;;;;;;20.38;10.82;;;19.10;90.30;;;;;;5034436;28;20044;-56
2021/06/23 11:39:34;;;;;;;15.68;10.95;;;19.10;90.30;;;;;;5030751;28;20420;-57
2021/06/23 11:42:19;;;;;;;14.48;10.63;;;19.10;90.30;;;;;;5035227;28;20068;-58
2021/06/23 11:45:04;;;;;;;;;;;19.10;90.30;;;;;;5036208;28;20427;-59
2021/06/23 11:47:48;;;;;;;11.98;10.10;;;19.00;90.10;;;;;;5035708;28;20375;-55
2021/06/23 11:50:32;;;;;;;16.90;10.70;;;19.10;90.30;;;;;;5010999;28;20068;-57
2021/06/23 11:53:18;;;;;;;17.63;11.25;;;19.10;90.30;;;;;;5031177;28;20035;-58
2021/06/23 11:56:02;;;;;;;14.98;9.93;;;19.20;90.50;;;;;;5022476;28;20527;-59
2021/06/23 11:58:46;;;;;;;14.50;10.07;;;19.30;90.20;;;;;;5035533;28;20036;-58
2021/06/23 12:01:31;;;;;;;13.93;9.00;;;19.50;89.60;;;;;;5026376;28;20064;-57
2021/06/23 12:04:15;;;;;;;14.13;9.88;;;19.60;89.60;;;;;;5035598;28;20029;-57
2021/06/23 12:06:59;;;;;;;;;;;19.80;88.40;;;;;;5028208;28;20048;-57
2021/06/23 12:09:43;;;;;;;14.00;9.40;;;19.80;89.00;;;;;;5029759;28;19963;-58
2021/06/23 12:12:29;;;;;;;17.42;8.82;;;20.20;87.30;;;;;;5035200;28;20072;-60
2021/06/23 12:15:16;;;;;;;15.45;9.63;;;20.30;87.00;;;;;;5018185;28;20080;-59
2021/06/23 12:18:06;;;;;;;14.60;10.30;;;20.10;86.90;;;;;;5028877;28;20052;-58
2021/06/23 12:20:50;;;;;;;16.58;9.93;;;20.40;86.90;;;;;;5031679;28;20048;-57
2021/06/23 12:23:35;;;;;;;17.58;10.20;;;20.50;86.00;;;;;;5001398;28;20056;-57
2021/06/23 12:26:22;;;;;;;13.77;10.07;;;20.60;85.20;;;;;;5017887;28;20052;-57
2021/06/23 12:29:07;;;;;;;14.77;9.68;;;20.90;84.80;;;;;;5014827;28;20045;-58
2021/06/23 12:31:51;;;;;;;13.80;9.23;;;21.10;85.30;;;;;;5025782;28;20044;-57
2021/06/23 12:34:35;;;;;;;15.02;10.93;;;20.90;84.50;;;;;;5013138;28;20555;-57
2021/06/23 12:37:19;;;;;;;16.17;10.60;;;20.60;84.10;;;;;;5017401;28;20307;-59
2021/06/23 12:40:04;;;;;;;11.10;8.73;;;20.60;84.90;;;;;;5030504;28;20122;-57
2021/06/23 12:42:48;;;;;;;16.90;10.43;;;20.80;84.50;;;;;;5033636;28;20072;-58
2021/06/23 12:45:33;;;;;;;14.07;9.50;;;21.00;84.20;;;;;;5018659;28;20039;-56
2021/06/23 12:48:17;;;;;;;10.85;8.70;;;21.30;82.70;;;;;;5033235;28;20048;-58
2021/06/23 12:51:01;;;;;;;11.52;9.88;;;21.60;82.30;;;;;;5022996;28;20483;-58
2021/06/23 12:53:45;;;;;;;15.38;9.35;;;21.40;81.30;;;;;;5022770;28;20456;-56
2021/06/23 12:56:29;;;;;;;12.88;8.88;;;21.30;80.90;;;;;;5032456;28;20838;-58
2021/06/23 12:59:13;;;;;;;27.00;16.58;;;21.30;81.00;;;;;;5033073;28;20083;-54
2021/06/23 13:01:58;;;;;;;12.60;8.52;;;21.30;82.00;;;;;;5029617;28;20087;-58
2021/06/23 13:04:42;;;;;;;17.20;11.38;;;21.30;79.80;;;;;;5027908;28;20068;-58
2021/06/23 13:07:26;;;;;;;12.65;9.13;;;21.40;80.50;;;;;;5023210;28;20040;-58
2021/06/23 13:10:15;;;;;;;10.30;8.30;;;21.70;79.20;;;;;;5033102;28;20155;-58
2021/06/23 13:12:59;;;;;;;12.35;8.77;;;21.40;80.60;;;;;;5031142;28;20091;-59
2021/06/23 13:15:43;;;;;;;10.85;7.80;;;21.70;81.00;;;;;;5032818;28;20049;-57
2021/06/23 13:18:27;;;;;;;8.80;7.60;;;22.20;78.70;;;;;;5032795;28;20124;-57
2021/06/23 13:21:12;;;;;;;;;;;22.60;78.40;;;;;;5017142;28;20084;-58
2021/06/23 13:23:56;;;;;;;16.73;7.03;;;22.90;77.70;;;;;;5032588;28;19921;-58
2021/06/23 13:26:40;;;;;;;;;;;23.20;76.60;;;;;;5019786;28;20064;-59
2021/06/23 13:29:25;;;;;;;9.23;7.90;;;23.20;76.10;;;;;;5018968;28;19939;-59
2021/06/23 13:32:10;;;;;;;;;;;23.40;76.00;;;;;;5020577;28;20092;-56
2021/06/23 13:34:55;;;;;;;11.65;7.15;;;23.60;75.80;;;;;;5028586;28;19987;-57
2021/06/23 13:37:39;;;;;;;10.30;7.63;;;24.10;75.10;;;;;;5031733;28;20040;-59
2021/06/23 13:40:24;;;;;;;11.77;7.25;;;24.20;73.20;;;;;;5033675;28;20459;-57
2021/06/23 13:43:08;;;;;;;12.57;7.18;;;24.20;71.30;;;;;;5033167;28;20076;-58
2021/06/23 13:45:53;;;;;;;22.92;13.10;;;24.00;73.00;;;;;;5020753;28;20073;-58
2021/06/23 13:48:34;;;;;;;12.93;8.18;;;24.40;73.60;;;;;;5036352;28;20040;-58
2021/06/23 13:51:19;;;;;;;9.18;7.10;;;24.60;71.20;;;;;;5034114;28;20041;-59
2021/06/23 13:54:03;;;;;;;10.75;7.38;;;24.60;71.20;;;;;;5021600;28;20047;-59
2021/06/23 13:56:47;;;;;;;12.68;9.20;;;24.50;70.60;;;;;;5021507;28;20141;-58
2021/06/23 13:59:32;;;;;;;10.48;7.28;;;24.20;70.80;;;;;;5037059;28;20044;-60
2021/06/23 14:02:16;;;;;;;10.18;6.82;;;24.20;71.10;;;;;;5029228;28;20057;-58
2021/06/23 14:05:00;;;;;;;11.60;7.55;;;24.20;71.30;;;;;;5035016;28;20037;-59
2021/06/23 14:07:44;;;;;;;9.48;6.93;;;24.50;70.70;;;;;;5021481;28;20033;-57
2021/06/23 14:10:29;;;;;;;8.70;6.90;;;24.90;70.60;;;;;;5021291;28;20024;-57
2021/06/23 14:13:15;;;;;;;8.63;6.75;;;24.80;69.80;;;;;;5035673;28;20083;-59
2021/06/23 14:15:59;;;;;;;10.43;7.57;;;24.40;70.70;;;;;;5035877;28;20036;-57
2021/06/23 14:18:43;;;;;;;7.85;6.70;;;24.30;70.30;;;;;;5035543;28;20028;-58
2021/06/23 14:21:27;;;;;;;19.77;9.48;;;24.30;71.20;;;;;;5020975;28;20060;-57
2021/06/23 14:24:11;;;;;;;12.32;7.75;;;24.80;70.50;;;;;;5035426;28;20049;-57